sensor_id;sensor_type;location;lat;lon;timestamp;temperature;humidity
2973;DHT22;1496;51.404;7.232;2023-04-15T00:00:47;7.90;1.00
2973;DHT22;1496;51.404;7.232;2023-04-15T00:03:13;7.90;1.00
2973;DHT22;1496;51.404;7.232;2023-04-15T00:05:41;7.90;1.00
2973;DHT22;1496;51.404;7.232;2023-04-15T00:08:10;7.90;1.00
2973;DHT22;1496;51.404;7.232;2023-04-15T00:10:37;8.00;1.00
2973;DHT22;1496;51.404;7.232;2023-04-15T00:13:04;8.10;1.00
2973;DHT22;1496;51.404;7.232;2023-04-15T00:15:31;8.10;1.00
2973;DHT22;1496;51.404;7.232;2023-04-15T00:17:58;8.10;1.00
2973;DHT22;1496;51.404;7.232;2023-04-15T00:20:26;8.10;1.00
2973;DHT22;1496;51.404;7.232;2023-04-15T00:22:54;8.20;1.00
2973;DHT22;1496;51.404;7.232;2023-04-15T00:25:21;8.10;1.00
2973;DHT22;1496;51.404;7.232;2023-04-15T00:27:48;8.20;1.00
2973;DHT22;1496;51.404;7.232;2023-04-15T00:30:15;8.20;1.00
2973;DHT22;1496;51.404;7.232;2023-04-15T00:32:42;8.10;1.00
2973;DHT22;1496;51.404;7.232;2023-04-15T00:35:10;8.10;1.00
2973;DHT22;1496;51.404;7.232;2023-04-15T00:37:39;8.10;1.00
2973;DHT22;1496;51.404;7.232;2023-04-15T00:40:05;8.10;1.00
2973;DHT22;1496;51.404;7.232;2023-04-15T00:42:34;8.10;1.00
2973;DHT22;1496;51.404;7.232;2023-04-15T00:45:02;8.10;1.00
2973;DHT22;1496;51.404;7.232;2023-04-15T00:47:29;8.00;1.00
2973;DHT22;1496;51.404;7.232;2023-04-15T00:49:56;7.70;1.00
2973;DHT22;1496;51.404;7.232;2023-04-15T00:52:24;7.20;1.00
2973;DHT22;1496;51.404;7.232;2023-04-15T00:54:52;6.90;1.00
2973;DHT22;1496;51.404;7.232;2023-04-15T00:57:20;6.70;1.00
2973;DHT22;1496;51.404;7.232;2023-04-15T00:59:49;6.70;1.00
2973;DHT22;1496;51.404;7.232;2023-04-15T01:02:16;6.80;1.00
2973;DHT22;1496;51.404;7.232;2023-04-15T01:04:43;6.90;1.00
2973;DHT22;1496;51.404;7.232;2023-04-15T01:07:09;6.90;1.00
2973;DHT22;1496;51.404;7.232;2023-04-15T01:09:37;6.90;1.00
2973;DHT22;1496;51.404;7.232;2023-04-15T01:12:04;7.00;1.00
2973;DHT22;1496;51.404;7.232;2023-04-15T01:14:33;6.90;1.00
2973;DHT22;1496;51.404;7.232;2023-04-15T01:16:59;6.90;1.00
2973;DHT22;1496;51.404;7.232;2023-04-15T01:19:28;6.80;1.00
2973;DHT22;1496;51.404;7.232;2023-04-15T01:21:58;6.80;1.00
2973;DHT22;1496;51.404;7.232;2023-04-15T01:24:26;6.70;1.00
2973;DHT22;1496;51.404;7.232;2023-04-15T01:26:56;6.70;1.00
2973;DHT22;1496;51.404;7.232;2023-04-15T01:29:24;6.60;1.00
2973;DHT22;1496;51.404;7.232;2023-04-15T01:31:55;6.70;1.00
2973;DHT22;1496;51.404;7.232;2023-04-15T01:34:25;6.60;1.00
2973;DHT22;1496;51.404;7.232;2023-04-15T01:36:54;6.60;1.00
2973;DHT22;1496;51.404;7.232;2023-04-15T01:39:23;6.60;1.00
2973;DHT22;1496;51.404;7.232;2023-04-15T01:41:49;6.60;1.00
2973;DHT22;1496;51.404;7.232;2023-04-15T01:44:19;6.60;1.00
2973;DHT22;1496;51.404;7.232;2023-04-15T01:46:51;6.50;1.00
2973;DHT22;1496;51.404;7.232;2023-04-15T01:49:23;6.50;1.00
2973;DHT22;1496;51.404;7.232;2023-04-15T01:51:49;6.50;1.00
2973;DHT22;1496;51.404;7.232;2023-04-15T01:54:17;6.60;1.00
2973;DHT22;1496;51.404;7.232;2023-04-15T01:56:44;6.60;1.00
2973;DHT22;1496;51.404;7.232;2023-04-15T01:59:14;6.60;1.00
2973;DHT22;1496;51.404;7.232;2023-04-15T02:01:41;6.70;1.00
2973;DHT22;1496;51.404;7.232;2023-04-15T02:04:10;6.60;1.00
2973;DHT22;1496;51.404;7.232;2023-04-15T02:06:45;6.60;1.00
2973;DHT22;1496;51.404;7.232;2023-04-15T02:09:14;6.60;1.00
2973;DHT22;1496;51.404;7.232;2023-04-15T02:11:41;6.60;1.00
2973;DHT22;1496;51.404;7.232;2023-04-15T02:14:08;6.70;1.00
2973;DHT22;1496;51.404;7.232;2023-04-15T02:16:36;6.70;1.00
2973;DHT22;1496;51.404;7.232;2023-04-15T02:19:02;6.70;1.00
2973;DHT22;1496;51.404;7.232;2023-04-15T02:21:29;6.70;1.00
2973;DHT22;1496;51.404;7.232;2023-04-15T02:23:55;6.70;1.00
2973;DHT22;1496;51.404;7.232;2023-04-15T02:26:25;6.80;1.00
2973;DHT22;1496;51.404;7.232;2023-04-15T02:28:54;6.90;1.00
2973;DHT22;1496;51.404;7.232;2023-04-15T02:31:21;6.90;1.00
2973;DHT22;1496;51.404;7.232;2023-04-15T02:33:48;6.90;1.00
2973;DHT22;1496;51.404;7.232;2023-04-15T02:36:16;6.90;1.00
2973;DHT22;1496;51.404;7.232;2023-04-15T02:38:44;6.80;1.00
2973;DHT22;1496;51.404;7.232;2023-04-15T02:41:13;6.50;1.00
2973;DHT22;1496;51.404;7.232;2023-04-15T02:43:43;6.10;1.00
2973;DHT22;1496;51.404;7.232;2023-04-15T02:46:12;5.90;1.00
2973;DHT22;1496;51.404;7.232;2023-04-15T02:48:41;5.70;1.00
2973;DHT22;1496;51.404;7.232;2023-04-15T02:51:19;5.80;1.00
2973;DHT22;1496;51.404;7.232;2023-04-15T02:53:47;5.80;1.00
2973;DHT22;1496;51.404;7.232;2023-04-15T02:56:15;5.80;1.00
2973;DHT22;1496;51.404;7.232;2023-04-15T02:58:43;5.80;1.00
2973;DHT22;1496;51.404;7.232;2023-04-15T03:01:10;5.80;1.00
2973;DHT22;1496;51.404;7.232;2023-04-15T03:03:37;5.80;1.00
2973;DHT22;1496;51.404;7.232;2023-04-15T03:06:04;5.80;1.00
2973;DHT22;1496;51.404;7.232;2023-04-15T03:08:33;5.80;1.00
2973;DHT22;1496;51.404;7.232;2023-04-15T03:11:04;5.80;1.00
2973;DHT22;1496;51.404;7.232;2023-04-15T03:13:32;5.70;1.00
2973;DHT22;1496;51.404;7.232;2023-04-15T03:16:06;5.60;1.00
2973;DHT22;1496;51.404;7.232;2023-04-15T03:18:35;5.60;1.00
2973;DHT22;1496;51.404;7.232;2023-04-15T03:21:04;5.50;1.00
2973;DHT22;1496;51.404;7.232;2023-04-15T03:23:36;5.50;1.00
2973;DHT22;1496;51.404;7.232;2023-04-15T03:26:03;5.60;1.00
2973;DHT22;1496;51.404;7.232;2023-04-15T03:28:31;5.50;1.00
2973;DHT22;1496;51.404;7.232;2023-04-15T03:31:00;5.50;1.00
2973;DHT22;1496;51.404;7.232;2023-04-15T03:33:28;5.50;1.00
2973;DHT22;1496;51.404;7.232;2023-04-15T03:35:55;5.60;1.00
2973;DHT22;1496;51.404;7.232;2023-04-15T03:38:22;5.60;1.00
2973;DHT22;1496;51.404;7.232;2023-04-15T03:40:48;5.50;1.00
2973;DHT22;1496;51.404;7.232;2023-04-15T03:43:15;5.50;1.00
2973;DHT22;1496;51.404;7.232;2023-04-15T03:45:42;5.50;1.00
2973;DHT22;1496;51.404;7.232;2023-04-15T03:48:10;5.40;1.00
2973;DHT22;1496;51.404;7.232;2023-04-15T03:50:38;5.40;1.00
2973;DHT22;1496;51.404;7.232;2023-04-15T03:53:04;5.40;1.00
2973;DHT22;1496;51.404;7.232;2023-04-15T03:55:32;5.30;1.00
2973;DHT22;1496;51.404;7.232;2023-04-15T03:57:58;5.40;1.00
2973;DHT22;1496;51.404;7.232;2023-04-15T04:00:24;5.40;1.00
2973;DHT22;1496;51.404;7.232;2023-04-15T04:02:51;5.40;1.00
2973;DHT22;1496;51.404;7.232;2023-04-15T04:05:17;5.30;1.00
2973;DHT22;1496;51.404;7.232;2023-04-15T04:07:45;5.30;1.00
2973;DHT22;1496;51.404;7.232;2023-04-15T04:10:14;5.30;1.00
2973;DHT22;1496;51.404;7.232;2023-04-15T04:12:40;5.30;1.00
2973;DHT22;1496;51.404;7.232;2023-04-15T04:15:09;5.30;1.00
2973;DHT22;1496;51.404;7.232;2023-04-15T04:17:37;5.30;1.00
2973;DHT22;1496;51.404;7.232;2023-04-15T04:20:03;5.30;1.00
2973;DHT22;1496;51.404;7.232;2023-04-15T04:22:39;5.20;1.00
2973;DHT22;1496;51.404;7.232;2023-04-15T04:25:07;5.30;1.00
2973;DHT22;1496;51.404;7.232;2023-04-15T04:27:33;5.20;1.00
2973;DHT22;1496;51.404;7.232;2023-04-15T04:30:01;5.20;1.00
2973;DHT22;1496;51.404;7.232;2023-04-15T04:32:27;5.20;1.00
2973;DHT22;1496;51.404;7.232;2023-04-15T04:34:54;5.20;1.00
2973;DHT22;1496;51.404;7.232;2023-04-15T04:37:21;5.20;1.00
2973;DHT22;1496;51.404;7.232;2023-04-15T04:39:49;5.20;1.00
2973;DHT22;1496;51.404;7.232;2023-04-15T04:42:15;5.30;1.00
2973;DHT22;1496;51.404;7.232;2023-04-15T04:44:42;5.30;1.00
2973;DHT22;1496;51.404;7.232;2023-04-15T04:47:09;5.20;1.00
2973;DHT22;1496;51.404;7.232;2023-04-15T04:49:37;5.20;1.00
2973;DHT22;1496;51.404;7.232;2023-04-15T04:52:04;5.30;1.00
2973;DHT22;1496;51.404;7.232;2023-04-15T04:54:31;5.30;1.00
2973;DHT22;1496;51.404;7.232;2023-04-15T04:56:57;5.30;1.00
2973;DHT22;1496;51.404;7.232;2023-04-15T04:59:24;5.30;1.00
2973;DHT22;1496;51.404;7.232;2023-04-15T05:01:51;5.40;1.00
2973;DHT22;1496;51.404;7.232;2023-04-15T05:04:18;5.40;1.00
2973;DHT22;1496;51.404;7.232;2023-04-15T05:06:44;5.40;1.00
2973;DHT22;1496;51.404;7.232;2023-04-15T05:09:12;5.40;1.00
2973;DHT22;1496;51.404;7.232;2023-04-15T05:11:38;5.30;1.00
2973;DHT22;1496;51.404;7.232;2023-04-15T05:14:04;5.30;1.00
2973;DHT22;1496;51.404;7.232;2023-04-15T05:16:31;5.30;1.00
2973;DHT22;1496;51.404;7.232;2023-04-15T05:18:58;5.30;1.00
2973;DHT22;1496;51.404;7.232;2023-04-15T05:21:25;5.40;1.00
2973;DHT22;1496;51.404;7.232;2023-04-15T05:23:54;5.40;1.00
2973;DHT22;1496;51.404;7.232;2023-04-15T05:26:21;5.40;1.00
2973;DHT22;1496;51.404;7.232;2023-04-15T05:28:49;5.40;1.00
2973;DHT22;1496;51.404;7.232;2023-04-15T05:31:18;5.40;1.00
2973;DHT22;1496;51.404;7.232;2023-04-15T05:33:47;5.40;1.00
2973;DHT22;1496;51.404;7.232;2023-04-15T05:36:14;5.30;1.00
2973;DHT22;1496;51.404;7.232;2023-04-15T05:38:40;5.30;1.00
2973;DHT22;1496;51.404;7.232;2023-04-15T05:41:08;5.30;1.00
2973;DHT22;1496;51.404;7.232;2023-04-15T05:43:34;5.30;1.00
2973;DHT22;1496;51.404;7.232;2023-04-15T05:46:01;5.30;1.00
2973;DHT22;1496;51.404;7.232;2023-04-15T05:48:28;5.30;1.00
2973;DHT22;1496;51.404;7.232;2023-04-15T05:50:55;5.30;1.00
2973;DHT22;1496;51.404;7.232;2023-04-15T05:53:23;5.30;1.00
2973;DHT22;1496;51.404;7.232;2023-04-15T05:55:50;5.30;1.00
2973;DHT22;1496;51.404;7.232;2023-04-15T05:58:19;5.30;1.00
2973;DHT22;1496;51.404;7.232;2023-04-15T06:00:45;5.40;1.00
2973;DHT22;1496;51.404;7.232;2023-04-15T06:03:13;5.40;1.00
2973;DHT22;1496;51.404;7.232;2023-04-15T06:05:39;5.50;1.00
2973;DHT22;1496;51.404;7.232;2023-04-15T06:08:06;5.50;1.00
2973;DHT22;1496;51.404;7.232;2023-04-15T06:10:34;5.50;1.00
2973;DHT22;1496;51.404;7.232;2023-04-15T06:13:02;5.50;1.00
2973;DHT22;1496;51.404;7.232;2023-04-15T06:15:34;5.60;1.00
2973;DHT22;1496;51.404;7.232;2023-04-15T06:18:02;5.70;1.00
2973;DHT22;1496;51.404;7.232;2023-04-15T06:20:28;5.70;1.00
2973;DHT22;1496;51.404;7.232;2023-04-15T06:22:57;5.70;1.00
2973;DHT22;1496;51.404;7.232;2023-04-15T06:25:24;5.70;1.00
2973;DHT22;1496;51.404;7.232;2023-04-15T06:27:51;5.80;1.00
2973;DHT22;1496;51.404;7.232;2023-04-15T06:30:19;5.80;1.00
2973;DHT22;1496;51.404;7.232;2023-04-15T06:32:49;5.80;1.00
2973;DHT22;1496;51.404;7.232;2023-04-15T06:35:16;5.80;1.00
2973;DHT22;1496;51.404;7.232;2023-04-15T06:37:45;5.80;1.00
2973;DHT22;1496;51.404;7.232;2023-04-15T06:40:12;5.80;1.00
2973;DHT22;1496;51.404;7.232;2023-04-15T06:42:39;5.70;1.00
2973;DHT22;1496;51.404;7.232;2023-04-15T06:45:08;5.60;1.00
2973;DHT22;1496;51.404;7.232;2023-04-15T06:47:35;5.50;1.00
2973;DHT22;1496;51.404;7.232;2023-04-15T06:50:02;5.50;1.00
2973;DHT22;1496;51.404;7.232;2023-04-15T06:52:29;5.60;1.00
2973;DHT22;1496;51.404;7.232;2023-04-15T06:54:56;5.70;1.00
2973;DHT22;1496;51.404;7.232;2023-04-15T06:57:25;5.70;1.00
2973;DHT22;1496;51.404;7.232;2023-04-15T06:59:51;5.80;1.00
2973;DHT22;1496;51.404;7.232;2023-04-15T07:02:19;5.80;1.00
2973;DHT22;1496;51.404;7.232;2023-04-15T07:04:47;6.10;1.00
2973;DHT22;1496;51.404;7.232;2023-04-15T07:07:14;6.20;1.00
2973;DHT22;1496;51.404;7.232;2023-04-15T07:09:43;6.30;1.00
2973;DHT22;1496;51.404;7.232;2023-04-15T07:12:11;6.20;1.00
2973;DHT22;1496;51.404;7.232;2023-04-15T07:14:39;6.20;1.00
2973;DHT22;1496;51.404;7.232;2023-04-15T07:17:08;6.30;1.00
2973;DHT22;1496;51.404;7.232;2023-04-15T07:19:35;6.30;1.00
2973;DHT22;1496;51.404;7.232;2023-04-15T07:22:02;6.40;1.00
2973;DHT22;1496;51.404;7.232;2023-04-15T07:24:28;6.50;1.00
2973;DHT22;1496;51.404;7.232;2023-04-15T07:26:56;6.50;1.00
2973;DHT22;1496;51.404;7.232;2023-04-15T07:29:24;6.50;1.00
2973;DHT22;1496;51.404;7.232;2023-04-15T07:31:51;6.60;1.00
2973;DHT22;1496;51.404;7.232;2023-04-15T07:34:19;6.70;1.00
2973;DHT22;1496;51.404;7.232;2023-04-15T07:36:46;6.80;1.00
2973;DHT22;1496;51.404;7.232;2023-04-15T07:39:19;6.80;1.00
2973;DHT22;1496;51.404;7.232;2023-04-15T07:41:46;6.90;1.00
2973;DHT22;1496;51.404;7.232;2023-04-15T07:44:14;7.00;1.00
2973;DHT22;1496;51.404;7.232;2023-04-15T07:46:43;7.10;1.00
2973;DHT22;1496;51.404;7.232;2023-04-15T07:49:09;7.20;1.00
2973;DHT22;1496;51.404;7.232;2023-04-15T07:51:36;7.30;1.00
2973;DHT22;1496;51.404;7.232;2023-04-15T07:54:03;7.30;1.00
2973;DHT22;1496;51.404;7.232;2023-04-15T07:56:31;7.30;1.00
2973;DHT22;1496;51.404;7.232;2023-04-15T07:58:57;7.40;1.00
2973;DHT22;1496;51.404;7.232;2023-04-15T08:01:24;7.40;1.00
2973;DHT22;1496;51.404;7.232;2023-04-15T08:03:52;7.40;1.00
2973;DHT22;1496;51.404;7.232;2023-04-15T08:06:19;7.60;1.00
2973;DHT22;1496;51.404;7.232;2023-04-15T08:08:45;7.60;1.00
2973;DHT22;1496;51.404;7.232;2023-04-15T08:11:12;7.80;1.00
2973;DHT22;1496;51.404;7.232;2023-04-15T08:13:39;7.90;1.00
2973;DHT22;1496;51.404;7.232;2023-04-15T08:16:21;7.90;1.00
2973;DHT22;1496;51.404;7.232;2023-04-15T08:18:49;7.90;1.00
2973;DHT22;1496;51.404;7.232;2023-04-15T08:21:18;8.00;1.00
2973;DHT22;1496;51.404;7.232;2023-04-15T08:23:49;8.10;1.00
2973;DHT22;1496;51.404;7.232;2023-04-15T08:26:17;8.20;1.00
2973;DHT22;1496;51.404;7.232;2023-04-15T08:28:45;8.40;1.00
2973;DHT22;1496;51.404;7.232;2023-04-15T08:31:13;8.50;1.00
2973;DHT22;1496;51.404;7.232;2023-04-15T08:33:41;8.50;1.00
2973;DHT22;1496;51.404;7.232;2023-04-15T08:36:08;8.60;1.00
2973;DHT22;1496;51.404;7.232;2023-04-15T08:38:35;8.80;1.00
2973;DHT22;1496;51.404;7.232;2023-04-15T08:41:22;8.90;1.00
2973;DHT22;1496;51.404;7.232;2023-04-15T08:43:52;9.00;1.00
2973;DHT22;1496;51.404;7.232;2023-04-15T08:46:20;9.10;1.00
2973;DHT22;1496;51.404;7.232;2023-04-15T08:48:47;9.20;1.00
2973;DHT22;1496;51.404;7.232;2023-04-15T08:51:16;9.20;1.00
2973;DHT22;1496;51.404;7.232;2023-04-15T08:53:49;9.30;1.00
2973;DHT22;1496;51.404;7.232;2023-04-15T08:56:19;9.30;1.00
2973;DHT22;1496;51.404;7.232;2023-04-15T08:58:47;9.40;1.00
2973;DHT22;1496;51.404;7.232;2023-04-15T09:01:14;9.50;1.00
2973;DHT22;1496;51.404;7.232;2023-04-15T09:03:43;9.50;1.00
2973;DHT22;1496;51.404;7.232;2023-04-15T09:06:10;9.50;1.00
2973;DHT22;1496;51.404;7.232;2023-04-15T09:08:37;9.50;1.00
2973;DHT22;1496;51.404;7.232;2023-04-15T09:11:05;9.50;1.00
2973;DHT22;1496;51.404;7.232;2023-04-15T09:13:31;9.50;1.00
2973;DHT22;1496;51.404;7.232;2023-04-15T09:16:01;9.50;1.00
2973;DHT22;1496;51.404;7.232;2023-04-15T09:18:32;9.50;1.00
2973;DHT22;1496;51.404;7.232;2023-04-15T09:21:09;9.40;1.00
2973;DHT22;1496;51.404;7.232;2023-04-15T09:23:38;9.40;1.00
2973;DHT22;1496;51.404;7.232;2023-04-15T09:26:05;9.40;1.00
2973;DHT22;1496;51.404;7.232;2023-04-15T09:28:44;9.30;1.00
2973;DHT22;1496;51.404;7.232;2023-04-15T09:31:11;9.30;1.00
2973;DHT22;1496;51.404;7.232;2023-04-15T09:33:54;9.30;1.00
2973;DHT22;1496;51.404;7.232;2023-04-15T09:36:23;9.20;1.00
2973;DHT22;1496;51.404;7.232;2023-04-15T09:38:58;9.20;1.00
2973;DHT22;1496;51.404;7.232;2023-04-15T09:41:25;9.20;1.00
2973;DHT22;1496;51.404;7.232;2023-04-15T09:43:54;9.20;1.00
2973;DHT22;1496;51.404;7.232;2023-04-15T09:46:40;9.10;1.00
2973;DHT22;1496;51.404;7.232;2023-04-15T09:49:10;9.10;1.00
2973;DHT22;1496;51.404;7.232;2023-04-15T09:51:38;9.10;1.00
2973;DHT22;1496;51.404;7.232;2023-04-15T09:54:04;9.00;1.00
2973;DHT22;1496;51.404;7.232;2023-04-15T09:56:36;9.00;1.00
2973;DHT22;1496;51.404;7.232;2023-04-15T09:59:07;9.00;1.00
2973;DHT22;1496;51.404;7.232;2023-04-15T10:01:37;9.10;1.00
2973;DHT22;1496;51.404;7.232;2023-04-15T10:04:07;9.10;1.00
2973;DHT22;1496;51.404;7.232;2023-04-15T10:06:34;9.00;1.00
2973;DHT22;1496;51.404;7.232;2023-04-15T10:09:01;9.00;1.00
2973;DHT22;1496;51.404;7.232;2023-04-15T10:11:29;9.00;1.00
2973;DHT22;1496;51.404;7.232;2023-04-15T10:13:56;9.10;1.00
2973;DHT22;1496;51.404;7.232;2023-04-15T10:16:27;9.20;1.00
2973;DHT22;1496;51.404;7.232;2023-04-15T10:19:00;9.30;1.00
2973;DHT22;1496;51.404;7.232;2023-04-15T10:21:27;9.30;1.00
2973;DHT22;1496;51.404;7.232;2023-04-15T10:23:55;9.30;1.00
2973;DHT22;1496;51.404;7.232;2023-04-15T10:26:23;9.30;1.00
2973;DHT22;1496;51.404;7.232;2023-04-15T10:28:51;9.30;1.00
2973;DHT22;1496;51.404;7.232;2023-04-15T10:31:18;9.30;1.00
2973;DHT22;1496;51.404;7.232;2023-04-15T10:33:46;9.30;1.00
2973;DHT22;1496;51.404;7.232;2023-04-15T10:36:15;9.30;1.00
2973;DHT22;1496;51.404;7.232;2023-04-15T10:38:42;9.40;1.00
2973;DHT22;1496;51.404;7.232;2023-04-15T10:41:25;9.50;1.00
2973;DHT22;1496;51.404;7.232;2023-04-15T10:43:55;9.60;1.00
2973;DHT22;1496;51.404;7.232;2023-04-15T10:46:34;9.70;1.00
2973;DHT22;1496;51.404;7.232;2023-04-15T10:49:23;9.70;1.00
2973;DHT22;1496;51.404;7.232;2023-04-15T10:51:58;9.70;1.00
2973;DHT22;1496;51.404;7.232;2023-04-15T10:59:35;9.60;1.00
2973;DHT22;1496;51.404;7.232;2023-04-15T11:02:06;9.60;1.00
2973;DHT22;1496;51.404;7.232;2023-04-15T11:04:56;9.50;1.00
2973;DHT22;1496;51.404;7.232;2023-04-15T11:07:43;9.50;1.00
2973;DHT22;1496;51.404;7.232;2023-04-15T11:12:51;9.30;1.00
2973;DHT22;1496;51.404;7.232;2023-04-15T11:15:40;9.30;1.00
2973;DHT22;1496;51.404;7.232;2023-04-15T11:18:10;9.40;1.00
2973;DHT22;1496;51.404;7.232;2023-04-15T11:20:37;9.30;1.00
2973;DHT22;1496;51.404;7.232;2023-04-15T11:23:06;9.20;1.00
2973;DHT22;1496;51.404;7.232;2023-04-15T11:25:34;9.20;1.00
2973;DHT22;1496;51.404;7.232;2023-04-15T11:28:03;9.20;1.00
2973;DHT22;1496;51.404;7.232;2023-04-15T11:30:33;9.10;1.00
2973;DHT22;1496;51.404;7.232;2023-04-15T11:33:04;9.10;1.00
2973;DHT22;1496;51.404;7.232;2023-04-15T11:35:31;9.10;1.00
2973;DHT22;1496;51.404;7.232;2023-04-15T11:38:02;9.10;1.00
2973;DHT22;1496;51.404;7.232;2023-04-15T11:40:31;9.00;1.00
2973;DHT22;1496;51.404;7.232;2023-04-15T11:43:18;9.10;1.00
2973;DHT22;1496;51.404;7.232;2023-04-15T11:45:56;9.10;1.00
2973;DHT22;1496;51.404;7.232;2023-04-15T11:48:27;9.20;1.00
2973;DHT22;1496;51.404;7.232;2023-04-15T11:53:55;9.10;1.00
2973;DHT22;1496;51.404;7.232;2023-04-15T11:56:24;9.10;1.00
2973;DHT22;1496;51.404;7.232;2023-04-15T11:58:53;9.10;1.00
2973;DHT22;1496;51.404;7.232;2023-04-15T12:01:20;9.20;1.00
2973;DHT22;1496;51.404;7.232;2023-04-15T12:03:56;9.20;1.00
2973;DHT22;1496;51.404;7.232;2023-04-15T12:06:30;9.30;1.00
2973;DHT22;1496;51.404;7.232;2023-04-15T12:09:02;9.30;1.00
2973;DHT22;1496;51.404;7.232;2023-04-15T12:11:49;9.30;1.00
2973;DHT22;1496;51.404;7.232;2023-04-15T12:14:27;9.30;1.00
2973;DHT22;1496;51.404;7.232;2023-04-15T12:17:04;9.40;1.00
2973;DHT22;1496;51.404;7.232;2023-04-15T12:19:38;9.40;1.00
2973;DHT22;1496;51.404;7.232;2023-04-15T12:22:13;9.40;1.00
2973;DHT22;1496;51.404;7.232;2023-04-15T12:24:42;9.40;1.00
2973;DHT22;1496;51.404;7.232;2023-04-15T12:27:11;9.30;1.00
2973;DHT22;1496;51.404;7.232;2023-04-15T12:29:39;9.30;1.00
2973;DHT22;1496;51.404;7.232;2023-04-15T12:37:05;9.20;1.00
2973;DHT22;1496;51.404;7.232;2023-04-15T12:39:40;9.20;1.00
2973;DHT22;1496;51.404;7.232;2023-04-15T12:42:08;9.20;1.00
2973;DHT22;1496;51.404;7.232;2023-04-15T12:44:36;9.20;1.00
2973;DHT22;1496;51.404;7.232;2023-04-15T12:47:03;9.30;1.00
2973;DHT22;1496;51.404;7.232;2023-04-15T12:49:31;9.30;1.00
2973;DHT22;1496;51.404;7.232;2023-04-15T12:52:00;9.30;1.00
2973;DHT22;1496;51.404;7.232;2023-04-15T12:54:28;9.30;1.00
2973;DHT22;1496;51.404;7.232;2023-04-15T12:56:56;9.30;1.00
2973;DHT22;1496;51.404;7.232;2023-04-15T12:59:23;9.30;1.00
2973;DHT22;1496;51.404;7.232;2023-04-15T13:01:52;9.20;1.00
2973;DHT22;1496;51.404;7.232;2023-04-15T13:04:19;9.20;1.00
2973;DHT22;1496;51.404;7.232;2023-04-15T13:06:47;9.20;1.00
2973;DHT22;1496;51.404;7.232;2023-04-15T13:09:16;9.20;1.00
2973;DHT22;1496;51.404;7.232;2023-04-15T13:11:43;9.30;1.00
2973;DHT22;1496;51.404;7.232;2023-04-15T13:14:11;9.30;1.00
2973;DHT22;1496;51.404;7.232;2023-04-15T13:16:39;9.30;1.00
2973;DHT22;1496;51.404;7.232;2023-04-15T13:19:09;9.40;1.00
2973;DHT22;1496;51.404;7.232;2023-04-15T13:21:37;9.40;1.00
2973;DHT22;1496;51.404;7.232;2023-04-15T13:24:03;9.40;1.00
2973;DHT22;1496;51.404;7.232;2023-04-15T13:26:32;9.40;1.00
2973;DHT22;1496;51.404;7.232;2023-04-15T13:29:00;9.40;1.00
2973;DHT22;1496;51.404;7.232;2023-04-15T13:31:27;9.50;1.00
2973;DHT22;1496;51.404;7.232;2023-04-15T13:33:55;9.60;1.00
2973;DHT22;1496;51.404;7.232;2023-04-15T13:36:22;9.50;1.00
2973;DHT22;1496;51.404;7.232;2023-04-15T13:38:49;9.50;1.00
2973;DHT22;1496;51.404;7.232;2023-04-15T13:41:20;9.50;1.00
2973;DHT22;1496;51.404;7.232;2023-04-15T13:43:48;9.50;1.00
2973;DHT22;1496;51.404;7.232;2023-04-15T13:46:15;9.40;1.00
2973;DHT22;1496;51.404;7.232;2023-04-15T13:48:43;9.40;5.90
2973;DHT22;1496;51.404;7.232;2023-04-15T13:51:10;9.40;11.00
2973;DHT22;1496;51.404;7.232;2023-04-15T13:53:37;9.40;14.70
2973;DHT22;1496;51.404;7.232;2023-04-15T13:56:05;9.40;16.00
2973;DHT22;1496;51.404;7.232;2023-04-15T13:58:32;9.40;15.00
2973;DHT22;1496;51.404;7.232;2023-04-15T14:01:01;9.40;21.60
2973;DHT22;1496;51.404;7.232;2023-04-15T14:03:27;9.30;24.10
2973;DHT22;1496;51.404;7.232;2023-04-15T14:05:55;9.30;28.20
2973;DHT22;1496;51.404;7.232;2023-04-15T14:08:24;9.40;34.80
2973;DHT22;1496;51.404;7.232;2023-04-15T14:10:53;9.40;41.60
2973;DHT22;1496;51.404;7.232;2023-04-15T14:13:20;9.40;50.90
2973;DHT22;1496;51.404;7.232;2023-04-15T14:15:48;9.30;45.50
2973;DHT22;1496;51.404;7.232;2023-04-15T14:18:14;9.20;45.60
2973;DHT22;1496;51.404;7.232;2023-04-15T14:20:41;9.20;62.60
2973;DHT22;1496;51.404;7.232;2023-04-15T14:23:08;9.20;58.80
2973;DHT22;1496;51.404;7.232;2023-04-15T14:25:36;9.20;78.30
2973;DHT22;1496;51.404;7.232;2023-04-15T14:28:04;9.20;90.40
2973;DHT22;1496;51.404;7.232;2023-04-15T14:30:32;9.20;97.40
2973;DHT22;1496;51.404;7.232;2023-04-15T14:33:01;9.20;98.60
2973;DHT22;1496;51.404;7.232;2023-04-15T14:35:27;9.10;99.90
2973;DHT22;1496;51.404;7.232;2023-04-15T14:37:56;9.10;94.90
2973;DHT22;1496;51.404;7.232;2023-04-15T14:40:22;9.10;99.90
2973;DHT22;1496;51.404;7.232;2023-04-15T14:42:50;9.10;87.70
2973;DHT22;1496;51.404;7.232;2023-04-15T14:45:16;9.10;96.80
2973;DHT22;1496;51.404;7.232;2023-04-15T14:47:44;9.10;99.90
2973;DHT22;1496;51.404;7.232;2023-04-15T14:50:10;9.10;99.60
2973;DHT22;1496;51.404;7.232;2023-04-15T14:52:38;9.10;99.90
2973;DHT22;1496;51.404;7.232;2023-04-15T14:55:11;9.10;99.90
2973;DHT22;1496;51.404;7.232;2023-04-15T14:57:39;9.10;99.90
2973;DHT22;1496;51.404;7.232;2023-04-15T15:00:09;9.10;99.90
2973;DHT22;1496;51.404;7.232;2023-04-15T15:02:37;9.00;99.90
2973;DHT22;1496;51.404;7.232;2023-04-15T15:05:04;9.00;99.90
2973;DHT22;1496;51.404;7.232;2023-04-15T15:07:32;9.00;99.90
2973;DHT22;1496;51.404;7.232;2023-04-15T15:10:01;9.00;99.90
2973;DHT22;1496;51.404;7.232;2023-04-15T15:12:28;9.00;99.90
2973;DHT22;1496;51.404;7.232;2023-04-15T15:14:54;9.00;99.90
2973;DHT22;1496;51.404;7.232;2023-04-15T15:17:22;9.00;99.90
2973;DHT22;1496;51.404;7.232;2023-04-15T15:19:49;9.00;99.90
2973;DHT22;1496;51.404;7.232;2023-04-15T15:22:17;9.00;99.90
2973;DHT22;1496;51.404;7.232;2023-04-15T15:24:43;8.90;99.90
2973;DHT22;1496;51.404;7.232;2023-04-15T15:27:11;8.90;99.90
2973;DHT22;1496;51.404;7.232;2023-04-15T15:29:37;8.90;99.90
2973;DHT22;1496;51.404;7.232;2023-04-15T15:32:05;8.90;99.90
2973;DHT22;1496;51.404;7.232;2023-04-15T15:34:31;8.70;99.90
2973;DHT22;1496;51.404;7.232;2023-04-15T15:36:59;8.80;99.90
2973;DHT22;1496;51.404;7.232;2023-04-15T15:39:27;8.80;99.90
2973;DHT22;1496;51.404;7.232;2023-04-15T15:41:54;8.70;99.90
2973;DHT22;1496;51.404;7.232;2023-04-15T15:44:22;8.80;99.90
2973;DHT22;1496;51.404;7.232;2023-04-15T15:46:49;8.80;99.90
2973;DHT22;1496;51.404;7.232;2023-04-15T15:49:16;8.80;99.90
2973;DHT22;1496;51.404;7.232;2023-04-15T15:51:42;8.80;99.90
2973;DHT22;1496;51.404;7.232;2023-04-15T15:54:10;8.80;99.90
2973;DHT22;1496;51.404;7.232;2023-04-15T15:56:38;8.80;99.90
2973;DHT22;1496;51.404;7.232;2023-04-15T15:59:04;8.70;99.90
2973;DHT22;1496;51.404;7.232;2023-04-15T16:01:32;8.70;99.90
2973;DHT22;1496;51.404;7.232;2023-04-15T16:03:59;8.60;99.90
2973;DHT22;1496;51.404;7.232;2023-04-15T16:06:27;8.60;99.90
2973;DHT22;1496;51.404;7.232;2023-04-15T16:08:55;8.70;99.90
2973;DHT22;1496;51.404;7.232;2023-04-15T16:11:23;8.70;99.90
2973;DHT22;1496;51.404;7.232;2023-04-15T16:13:51;8.80;99.90
2973;DHT22;1496;51.404;7.232;2023-04-15T16:16:18;8.70;99.90
2973;DHT22;1496;51.404;7.232;2023-04-15T16:18:47;8.70;99.90
2973;DHT22;1496;51.404;7.232;2023-04-15T16:21:14;8.70;99.90
2973;DHT22;1496;51.404;7.232;2023-04-15T16:23:41;8.70;99.90
2973;DHT22;1496;51.404;7.232;2023-04-15T16:26:07;8.70;99.90
2973;DHT22;1496;51.404;7.232;2023-04-15T16:28:34;8.80;99.90
2973;DHT22;1496;51.404;7.232;2023-04-15T16:31:01;8.80;99.90
2973;DHT22;1496;51.404;7.232;2023-04-15T16:33:28;8.70;99.90
2973;DHT22;1496;51.404;7.232;2023-04-15T16:35:54;8.70;99.90
2973;DHT22;1496;51.404;7.232;2023-04-15T16:38:22;8.70;99.90
2973;DHT22;1496;51.404;7.232;2023-04-15T16:40:49;8.70;99.90
2973;DHT22;1496;51.404;7.232;2023-04-15T16:43:16;8.70;99.90
2973;DHT22;1496;51.404;7.232;2023-04-15T16:45:44;8.70;99.90
2973;DHT22;1496;51.404;7.232;2023-04-15T16:48:15;8.70;99.90
2973;DHT22;1496;51.404;7.232;2023-04-15T16:50:43;8.70;99.90
2973;DHT22;1496;51.404;7.232;2023-04-15T16:53:10;8.70;99.90
2973;DHT22;1496;51.404;7.232;2023-04-15T16:55:39;8.70;99.90